Location Isle ofWight, ISLE OF WIGHT, UK

ob UISISLE1 200315Z AUTO 23001G02KT RA 17/16 A2973 RMK SLPNO 

2019.07.20 0315 UTC
Wind from the SW (229 degrees) at 1.2 MPH (1 KT) gusting to 2.3 MPH (2 KT)
Visibility    Mile(s)
Weather: RAIN
Temperature 61.7 F (17 C)
Dew Point 60.8 F (16 C)
Relative Humidity 97%
Pressure   29.732 in. Hg (1007 hPa)
Rain  0.09 in.
Daily Rain 0.268 in.

Station Name  Isle of Wight Weather
Longitude, Latitude  -1.27, 50.72
Elevation 45
Station URL http://www.isleofwightweather.co.uk
Software Type WeatherDisplay:10.37S